createdAt,value
2024-04-19T00:01:14.865Z,6.53
2024-04-19T00:04:02.346Z,6.90
2024-04-19T00:06:51.467Z,5.90
2024-04-19T00:09:38.820Z,5.28
2024-04-19T00:12:26.148Z,5.60
2024-04-19T00:15:13.501Z,8.18
2024-04-19T00:18:00.897Z,6.05
2024-04-19T00:21:08.682Z,9.95
2024-04-19T00:23:55.955Z,5.57
2024-04-19T00:26:43.188Z,9.05
2024-04-19T00:29:30.437Z,4.10
2024-04-19T00:32:17.783Z,4.10
2024-04-19T00:35:05.170Z,7.95
2024-04-19T00:37:52.429Z,8.63
2024-04-19T00:40:51.745Z,6.95
2024-04-19T00:43:39.062Z,7.35
2024-04-19T00:46:27.243Z,6.80
2024-04-19T00:49:15.071Z,11.85
2024-04-19T00:52:04.966Z,7.82
2024-04-19T00:54:52.625Z,10.63
2024-04-19T00:57:40.068Z,7.32
2024-04-19T01:00:27.658Z,9.80
2024-04-19T01:03:15.098Z,7.70
2024-04-19T01:06:02.418Z,8.45
2024-04-19T01:08:49.764Z,14.00
2024-04-19T01:11:50.162Z,7.28
2024-04-19T01:14:37.397Z,8.23
2024-04-19T01:17:24.652Z,11.52
2024-04-19T01:20:12.086Z,6.75
2024-04-19T01:23:01.145Z,10.00
2024-04-19T01:25:49.775Z,7.85
2024-04-19T01:28:36.986Z,8.43
2024-04-19T01:31:24.191Z,8.07
2024-04-19T01:34:11.466Z,6.50
2024-04-19T01:36:58.759Z,6.93
2024-04-19T01:39:46.043Z,11.93
2024-04-19T01:42:33.587Z,9.82
2024-04-19T01:45:23.843Z,13.05
2024-04-19T01:48:11.285Z,8.82
2024-04-19T01:50:58.550Z,9.43
2024-04-19T01:53:45.751Z,8.18
2024-04-19T01:56:32.970Z,12.20
2024-04-19T01:59:20.683Z,15.10
2024-04-19T02:02:08.027Z,11.77
2024-04-19T02:04:55.691Z,8.77
2024-04-19T02:07:42.958Z,6.28
2024-04-19T02:10:30.207Z,8.98
2024-04-19T02:13:17.479Z,8.50
2024-04-19T02:16:05.467Z,6.85
2024-04-19T02:18:52.755Z,10.35
2024-04-19T02:21:40.274Z,8.60
2024-04-19T02:24:27.611Z,6.35
2024-04-19T02:27:33.588Z,5.25
2024-04-19T02:30:39.418Z,5.43
2024-04-19T02:33:28.001Z,6.50
2024-04-19T02:36:15.647Z,7.50
2024-04-19T02:39:02.933Z,8.40
2024-04-19T02:41:50.587Z,10.65
2024-04-19T02:44:38.086Z,3.72
2024-04-19T02:47:26.319Z,5.97
2024-04-19T02:50:13.564Z,6.45
2024-04-19T02:53:01.502Z,6.95
2024-04-19T02:55:51.410Z,6.45
2024-04-19T02:58:40.546Z,9.50
2024-04-19T03:01:28.592Z,9.35
2024-04-19T03:04:16.020Z,10.00
2024-04-19T03:07:03.423Z,9.18
2024-04-19T03:09:50.749Z,10.40
2024-04-19T03:12:38.191Z,10.15
2024-04-19T03:15:25.979Z,10.15
2024-04-19T03:18:13.300Z,12.45
2024-04-19T03:21:02.363Z,13.45
2024-04-19T03:23:49.598Z,9.60
2024-04-19T03:26:37.737Z,8.98
2024-04-19T03:29:25.159Z,10.20
2024-04-19T03:32:12.325Z,8.25
2024-04-19T03:34:59.693Z,12.43
2024-04-19T03:37:46.967Z,7.22
2024-04-19T03:40:34.296Z,10.00
2024-04-19T03:43:22.932Z,7.82
2024-04-19T03:46:10.210Z,13.30
2024-04-19T03:48:58.656Z,10.60
2024-04-19T03:51:46.109Z,10.20
2024-04-19T03:54:33.471Z,13.23
2024-04-19T03:57:20.772Z,6.97
2024-04-19T04:00:08.713Z,6.80
2024-04-19T04:03:03.528Z,6.78
2024-04-19T04:05:52.675Z,8.50
2024-04-19T04:08:39.912Z,7.25
2024-04-19T04:11:27.160Z,7.45
2024-04-19T04:14:14.535Z,8.50
2024-04-19T04:17:01.779Z,12.60
2024-04-19T04:19:49.031Z,8.27
2024-04-19T04:22:36.214Z,9.73
2024-04-19T04:25:23.501Z,6.75
2024-04-19T04:28:10.752Z,10.60
2024-04-19T04:30:58.382Z,9.40
2024-04-19T04:33:45.761Z,8.45
2024-04-19T04:36:33.962Z,7.35
2024-04-19T04:39:21.282Z,9.75
2024-04-19T04:42:08.564Z,8.63
2024-04-19T04:44:55.810Z,8.25
2024-04-19T04:47:43.236Z,11.48
2024-04-19T04:50:30.606Z,5.95
2024-04-19T04:53:18.211Z,7.90
2024-04-19T04:56:05.835Z,6.93
2024-04-19T04:58:55.827Z,6.93
2024-04-19T05:01:44.973Z,7.82
2024-04-19T05:04:34.034Z,7.45
2024-04-19T05:07:24.122Z,5.75
2024-04-19T05:10:11.370Z,4.55
2024-04-19T05:13:01.825Z,7.22
2024-04-19T05:15:51.248Z,5.18
2024-04-19T05:18:38.606Z,8.63
2024-04-19T05:21:25.875Z,4.55
2024-04-19T05:24:13.291Z,7.72
2024-04-19T05:27:00.608Z,5.03
2024-04-19T05:29:47.902Z,6.32
2024-04-19T05:32:35.206Z,5.25
2024-04-19T05:35:22.457Z,4.18
2024-04-19T05:38:09.769Z,6.10
2024-04-19T05:40:57.038Z,5.45
2024-04-19T05:43:47.610Z,4.88
2024-04-19T05:46:35.839Z,6.10
2024-04-19T05:49:23.999Z,8.00
2024-04-19T05:52:11.473Z,6.30
2024-04-19T05:54:59.105Z,4.90
2024-04-19T05:57:46.573Z,5.30
2024-04-19T06:00:33.948Z,5.80
2024-04-19T06:03:21.353Z,6.85
2024-04-19T06:06:08.741Z,8.70
2024-04-19T06:08:56.692Z,8.90
2024-04-19T06:11:43.938Z,10.65
2024-04-19T06:14:31.318Z,9.77
2024-04-19T06:17:18.641Z,8.73
2024-04-19T06:20:06.816Z,9.32
2024-04-19T06:22:54.043Z,11.50
2024-04-19T06:25:41.511Z,18.02
2024-04-19T06:28:28.855Z,13.98
2024-04-19T06:31:17.975Z,9.85
2024-04-19T06:34:06.813Z,12.00
2024-04-19T06:36:54.156Z,14.88
2024-04-19T06:39:50.460Z,6.43
2024-04-19T06:42:47.616Z,9.32
2024-04-19T06:45:38.467Z,15.02
2024-04-19T06:48:26.354Z,19.67
2024-04-19T06:51:13.716Z,12.15
2024-04-19T06:54:01.120Z,9.95
2024-04-19T06:56:48.440Z,13.85
2024-04-19T06:59:35.819Z,15.70
2024-04-19T07:02:23.230Z,13.55
2024-04-19T07:05:10.647Z,9.95
2024-04-19T07:07:58.055Z,17.40
2024-04-19T07:10:45.365Z,15.90
2024-04-19T07:13:35.242Z,13.48
2024-04-19T07:16:22.561Z,13.50
2024-04-19T07:19:09.833Z,10.52
2024-04-19T07:21:57.138Z,16.63
2024-04-19T07:24:44.602Z,8.90
2024-04-19T07:27:39.455Z,8.07
2024-04-19T07:30:32.915Z,8.32
2024-04-19T07:33:20.355Z,11.00
2024-04-19T07:36:08.110Z,11.60
2024-04-19T07:38:55.650Z,10.85
2024-04-19T07:41:44.054Z,7.60
2024-04-19T07:44:31.517Z,5.78
2024-04-19T07:47:18.890Z,7.13
2024-04-19T07:50:06.675Z,6.93
2024-04-19T07:52:53.957Z,5.00
2024-04-19T07:55:41.209Z,5.97
2024-04-19T07:58:28.563Z,4.63
2024-04-19T08:01:15.895Z,5.38
2024-04-19T08:04:04.578Z,3.50
2024-04-19T08:06:52.207Z,3.35
2024-04-19T08:09:39.816Z,4.72
2024-04-19T08:12:27.156Z,7.10
2024-04-19T08:15:14.554Z,7.28
2024-04-19T08:18:01.862Z,4.60
2024-04-19T08:20:49.177Z,4.32
2024-04-19T08:23:36.417Z,8.93
2024-04-19T08:26:23.705Z,4.97
2024-04-19T08:29:18.389Z,7.03
2024-04-19T08:32:14.941Z,10.88
2024-04-19T08:35:02.359Z,8.82
2024-04-19T08:37:49.697Z,12.48
2024-04-19T08:40:41.957Z,8.25
2024-04-19T08:43:35.165Z,5.95
2024-04-19T08:46:23.964Z,6.43
2024-04-19T08:49:17.042Z,5.57
2024-04-19T08:52:21.163Z,7.15
2024-04-19T08:55:13.894Z,6.53
2024-04-19T08:58:01.431Z,4.25
2024-04-19T09:00:49.257Z,3.60
2024-04-19T09:03:36.847Z,2.47
2024-04-19T09:06:29.277Z,8.65
2024-04-19T09:09:17.341Z,3.42
2024-04-19T09:12:07.554Z,4.85
2024-04-19T09:14:56.013Z,3.63
2024-04-19T09:17:43.534Z,4.63
2024-04-19T09:20:30.856Z,5.78
2024-04-19T09:23:18.127Z,3.08
2024-04-19T09:26:05.908Z,6.57
2024-04-19T09:28:54.620Z,4.78
2024-04-19T09:31:44.058Z,5.85
2024-04-19T09:34:31.356Z,8.82
2024-04-19T09:37:18.801Z,6.53
2024-04-19T09:40:06.806Z,5.03
2024-04-19T09:42:57.066Z,7.35
2024-04-19T09:45:45.263Z,6.07
2024-04-19T09:48:41.381Z,7.03
2024-04-19T09:51:48.477Z,6.45
2024-04-19T09:54:41.269Z,6.88
2024-04-19T09:57:31.143Z,5.25
2024-04-19T10:00:22.773Z,7.03
2024-04-19T10:03:15.538Z,3.95
2024-04-19T10:06:07.184Z,3.17
2024-04-19T10:08:59.008Z,3.63
2024-04-19T10:11:49.365Z,1.55
2024-04-19T10:14:36.761Z,5.07
2024-04-19T10:17:24.411Z,5.18
2024-04-19T10:20:14.661Z,3.70
2024-04-19T10:23:02.009Z,2.92
2024-04-19T10:25:50.984Z,2.65
2024-04-19T10:28:38.322Z,2.53
2024-04-19T10:31:25.798Z,2.92
2024-04-19T10:34:13.187Z,2.83
2024-04-19T10:37:00.577Z,4.10
2024-04-19T10:39:48.441Z,3.63
2024-04-19T10:42:36.291Z,4.72
2024-04-19T10:45:25.268Z,3.47
2024-04-19T10:48:13.629Z,3.55
2024-04-19T10:51:03.443Z,3.67
2024-04-19T10:53:51.544Z,4.13
2024-04-19T10:56:38.915Z,3.28
2024-04-19T10:59:26.235Z,6.82
2024-04-19T11:02:14.042Z,4.60
2024-04-19T11:05:03.737Z,4.57
2024-04-19T11:07:51.132Z,5.13
2024-04-19T11:10:38.569Z,7.95
2024-04-19T11:13:27.060Z,5.25
2024-04-19T11:16:14.382Z,7.35
2024-04-19T11:19:01.764Z,3.88
2024-04-19T11:21:50.169Z,8.25
2024-04-19T11:24:37.808Z,6.75
2024-04-19T11:27:25.182Z,7.45
2024-04-19T11:30:12.684Z,8.45
2024-04-19T11:33:01.862Z,9.55
2024-04-19T11:35:50.031Z,9.05
2024-04-19T11:38:37.328Z,7.25
2024-04-19T11:41:24.699Z,7.13
2024-04-19T11:44:12.178Z,7.00
2024-04-19T11:47:06.721Z,7.32
2024-04-19T11:49:54.064Z,6.93
2024-04-19T11:52:41.318Z,2.80
2024-04-19T11:55:28.637Z,6.65
2024-04-19T11:58:16.011Z,5.53
2024-04-19T12:01:03.418Z,7.68
2024-04-19T12:03:51.120Z,2.63
2024-04-19T12:06:39.471Z,3.60
2024-04-19T12:09:27.059Z,3.75
2024-04-19T12:12:54.010Z,6.03
2024-04-19T12:16:04.768Z,4.50
2024-04-19T12:18:30.863Z,2.45
2024-04-19T12:21:18.840Z,4.32
2024-04-19T12:24:07.691Z,5.28
2024-04-19T12:26:56.644Z,4.22
2024-04-19T12:29:46.867Z,4.88
2024-04-19T12:32:34.937Z,4.30
2024-04-19T12:35:22.500Z,5.78
2024-04-19T12:38:09.852Z,5.75
2024-04-19T12:40:57.146Z,5.38
2024-04-19T12:43:44.938Z,3.92
2024-04-19T12:46:32.424Z,7.45
2024-04-19T12:49:22.565Z,7.93
2024-04-19T12:52:09.982Z,3.75
2024-04-19T12:54:57.246Z,3.67
2024-04-19T12:57:44.729Z,2.35
2024-04-19T13:00:32.363Z,3.85
2024-04-19T13:03:19.821Z,3.17
2024-04-19T13:06:08.565Z,1.45
2024-04-19T13:08:55.844Z,3.17
2024-04-19T13:11:43.085Z,4.72
2024-04-19T13:14:30.515Z,1.10
2024-04-19T13:17:17.888Z,3.00
2024-04-19T13:20:07.051Z,2.58
2024-04-19T13:22:54.322Z,2.67
2024-04-19T13:25:41.705Z,3.75
2024-04-19T13:28:28.973Z,3.75
2024-04-19T13:31:16.403Z,2.45
2024-04-19T13:34:04.796Z,1.92
2024-04-19T13:36:52.637Z,3.60
2024-04-19T13:39:40.040Z,2.85
2024-04-19T13:42:28.886Z,1.83
2024-04-19T13:45:16.270Z,6.90
2024-04-19T13:48:04.133Z,3.00
2024-04-19T13:50:51.922Z,3.72
2024-04-19T13:53:42.891Z,3.47
2024-04-19T13:56:32.210Z,7.22
2024-04-19T13:59:22.263Z,5.15
2024-04-19T14:02:09.619Z,3.92
2024-04-19T14:04:57.197Z,4.47
2024-04-19T14:07:45.092Z,6.40
2024-04-19T14:10:32.493Z,6.70
2024-04-19T14:13:19.767Z,7.82
2024-04-19T14:16:07.464Z,4.65
2024-04-19T14:18:55.242Z,3.35
2024-04-19T14:21:42.892Z,7.07
2024-04-19T14:24:30.279Z,7.20
2024-04-19T14:27:17.576Z,6.20
2024-04-19T14:30:06.157Z,6.65
2024-04-19T14:32:53.423Z,4.97
2024-04-19T14:35:43.766Z,4.57
2024-04-19T14:38:31.778Z,8.55
2024-04-19T14:41:19.110Z,7.55
2024-04-19T14:44:06.341Z,10.20
2024-04-19T14:46:53.699Z,7.70
2024-04-19T14:49:41.052Z,5.55
2024-04-19T14:52:28.779Z,9.10
2024-04-19T14:55:16.151Z,7.75
2024-04-19T14:58:03.550Z,5.60
2024-04-19T15:00:51.849Z,5.90
2024-04-19T15:03:39.409Z,12.55
2024-04-19T15:06:31.251Z,7.53
2024-04-19T15:09:18.591Z,10.60
2024-04-19T15:12:06.335Z,12.55
2024-04-19T15:14:53.624Z,9.65
2024-04-19T15:17:43.819Z,10.35
2024-04-19T15:20:33.604Z,12.00
2024-04-19T15:23:20.886Z,11.13
2024-04-19T15:26:09.077Z,6.35
2024-04-19T15:28:56.477Z,10.25
2024-04-19T15:31:44.145Z,9.40
2024-04-19T15:34:41.699Z,14.27
2024-04-19T15:40:22.083Z,11.98
2024-04-19T15:43:09.447Z,6.57
2024-04-19T15:45:56.784Z,7.40
2024-04-19T15:48:44.219Z,4.82
2024-04-19T15:51:33.265Z,7.78
2024-04-19T15:54:20.640Z,6.43
2024-04-19T15:57:07.935Z,4.65
2024-04-19T15:59:55.370Z,8.82
2024-04-19T16:02:42.881Z,5.72
2024-04-19T16:05:31.073Z,6.85
2024-04-19T16:08:19.956Z,9.00
2024-04-19T16:11:07.406Z,7.13
2024-04-19T16:13:54.715Z,5.53
2024-04-19T16:16:43.717Z,6.50
2024-04-19T16:19:31.532Z,5.38
2024-04-19T16:22:20.410Z,9.70
2024-04-19T16:25:08.332Z,6.38
2024-04-19T16:27:55.659Z,4.85
2024-04-19T16:30:43.065Z,3.30
2024-04-19T16:33:32.084Z,6.35
2024-04-19T16:36:19.524Z,6.90
2024-04-19T16:39:07.941Z,4.05
2024-04-19T16:41:55.322Z,9.20
2024-04-19T16:44:48.064Z,5.20
2024-04-19T16:47:35.848Z,4.30
2024-04-19T16:50:23.289Z,5.85
2024-04-19T16:53:10.602Z,9.05
2024-04-19T16:55:57.860Z,3.78
2024-04-19T16:58:45.492Z,9.00
2024-04-19T17:01:32.887Z,7.18
2024-04-19T17:04:23.356Z,7.80
2024-04-19T17:07:10.702Z,5.65
2024-04-19T17:09:58.232Z,7.07
2024-04-19T17:12:45.667Z,10.55
2024-04-19T17:15:33.110Z,4.82
2024-04-19T17:18:20.478Z,12.07
2024-04-19T17:21:08.306Z,10.48
2024-04-19T17:23:57.089Z,10.13
2024-04-19T17:26:44.331Z,13.27
2024-04-19T17:29:31.575Z,5.97
2024-04-19T17:32:18.915Z,5.88
2024-04-19T17:35:09.630Z,9.43
2024-04-19T17:37:57.689Z,12.73
2024-04-19T17:40:48.790Z,9.25
2024-04-19T17:43:36.923Z,13.60
2024-04-19T17:46:24.361Z,12.80
2024-04-19T17:49:11.700Z,14.43
2024-04-19T17:51:58.980Z,16.85
2024-04-19T17:54:48.396Z,17.67
2024-04-19T17:57:35.914Z,11.65
2024-04-19T18:00:23.762Z,9.10
2024-04-19T18:03:11.230Z,13.52
2024-04-19T18:05:58.575Z,10.35
2024-04-19T18:08:47.302Z,17.65
2024-04-19T18:11:34.756Z,11.90
2024-04-19T18:14:22.207Z,12.57
2024-04-19T18:17:09.775Z,12.68
2024-04-19T18:19:59.879Z,17.27
2024-04-19T18:22:47.127Z,13.90
2024-04-19T18:25:34.431Z,18.05
2024-04-19T18:28:21.697Z,15.05
2024-04-19T18:31:09.122Z,15.00
2024-04-19T18:34:03.518Z,13.55
2024-04-19T18:36:51.721Z,14.35
2024-04-19T18:39:38.991Z,9.25
2024-04-19T18:42:26.319Z,20.30
2024-04-19T18:45:13.634Z,13.88
2024-04-19T18:48:01.061Z,12.82
2024-04-19T18:50:48.448Z,15.93
2024-04-19T18:53:36.003Z,11.25
2024-04-19T18:56:23.260Z,11.68
2024-04-19T18:59:10.596Z,11.35
2024-04-19T19:01:57.898Z,11.93
2024-04-19T19:04:45.401Z,9.80
2024-04-19T19:07:32.641Z,6.13
2024-04-19T19:10:19.961Z,13.13
2024-04-19T19:13:08.121Z,10.68
2024-04-19T19:15:57.162Z,9.05
2024-04-19T19:18:44.750Z,7.75
2024-04-19T19:21:32.845Z,14.73
2024-04-19T19:24:20.806Z,11.65
2024-04-19T19:27:08.049Z,7.88
2024-04-19T19:29:55.322Z,8.40
2024-04-19T19:32:42.817Z,9.77
2024-04-19T19:35:30.192Z,12.55
2024-04-19T19:38:17.463Z,11.23
2024-04-19T19:41:05.204Z,10.30
2024-04-19T19:43:52.488Z,10.05
2024-04-19T19:49:27.641Z,6.40
2024-04-19T19:52:14.945Z,6.30
2024-04-19T19:55:02.534Z,10.68
2024-04-19T19:57:54.242Z,8.00
2024-04-19T20:01:00.339Z,11.10
2024-04-19T20:04:06.340Z,10.68
2024-04-19T20:06:54.451Z,7.70
2024-04-19T20:09:41.929Z,10.10
2024-04-19T20:12:31.178Z,9.75
2024-04-19T20:15:22.788Z,9.70
2024-04-19T20:18:18.749Z,13.95
2024-04-19T20:21:06.223Z,12.55
2024-04-19T20:23:53.708Z,12.30
2024-04-19T20:26:41.040Z,8.95
2024-04-19T20:29:30.129Z,8.20
2024-04-19T20:32:18.449Z,12.23
2024-04-19T20:35:06.275Z,10.40
2024-04-19T20:37:53.539Z,10.95
2024-04-19T20:40:41.555Z,11.25
2024-04-19T20:43:29.153Z,8.88
2024-04-19T20:46:17.592Z,10.00
2024-04-19T20:49:04.954Z,7.13
2024-04-19T20:51:52.367Z,11.23
2024-04-19T20:54:39.821Z,9.13
2024-04-19T20:57:27.317Z,7.22
2024-04-19T21:00:14.830Z,5.25
2024-04-19T21:03:02.211Z,9.32
2024-04-19T21:05:49.743Z,7.88
2024-04-19T21:08:37.472Z,10.68
2024-04-19T21:11:24.932Z,8.65
2024-04-19T21:14:12.237Z,14.60
2024-04-19T21:16:59.591Z,12.75
2024-04-19T21:19:46.862Z,11.45
2024-04-19T21:22:34.192Z,14.02
2024-04-19T21:25:21.870Z,12.30
2024-04-19T21:28:09.359Z,11.50
2024-04-19T21:31:08.271Z,11.48
2024-04-19T21:33:55.733Z,9.32
2024-04-19T21:36:46.623Z,6.75
2024-04-19T21:39:34.202Z,6.10
2024-04-19T21:42:21.584Z,13.85
2024-04-19T21:45:09.468Z,8.00
2024-04-19T21:47:56.843Z,12.13
2024-04-19T21:50:44.439Z,12.73
2024-04-19T21:53:32.273Z,11.80
2024-04-19T21:56:19.610Z,4.30
2024-04-19T21:59:10.252Z,2.92
2024-04-19T22:01:57.625Z,2.58
2024-04-19T22:04:48.917Z,5.18
2024-04-19T22:07:36.294Z,3.78
2024-04-19T22:10:23.555Z,3.28
2024-04-19T22:13:14.304Z,2.75
2024-04-19T22:16:08.735Z,1.35
2024-04-19T22:18:56.325Z,5.47
2024-04-19T22:21:43.920Z,6.53
2024-04-19T22:24:31.191Z,5.00
2024-04-19T22:27:20.053Z,8.43
2024-04-19T22:30:08.398Z,3.15
2024-04-19T22:32:55.749Z,4.63
2024-04-19T22:35:43.217Z,5.43
2024-04-19T22:38:30.490Z,5.35
2024-04-19T22:41:17.940Z,6.10
2024-04-19T22:44:05.562Z,7.32
2024-04-19T22:46:53.047Z,7.38
2024-04-19T22:49:40.724Z,6.32
2024-04-19T22:52:27.959Z,2.33
2024-04-19T22:55:15.413Z,4.93
2024-04-19T22:58:05.142Z,2.17
2024-04-19T23:01:00.645Z,3.47
2024-04-19T23:03:48.102Z,3.15
2024-04-19T23:06:35.446Z,4.35
2024-04-19T23:09:23.061Z,5.63
2024-04-19T23:12:10.291Z,6.97
2024-04-19T23:14:57.574Z,7.93
2024-04-19T23:17:44.957Z,4.45
2024-04-19T23:20:32.416Z,5.97
2024-04-19T23:23:19.648Z,6.90
2024-04-19T23:26:13.159Z,6.90
2024-04-19T23:29:04.703Z,4.80
2024-04-19T23:31:52.883Z,2.50
2024-04-19T23:34:40.128Z,9.85
2024-04-19T23:37:27.367Z,7.53
2024-04-19T23:40:17.946Z,5.15
2024-04-19T23:43:05.400Z,6.22
2024-04-19T23:45:52.766Z,2.47
2024-04-19T23:48:40.078Z,3.50
2024-04-19T23:51:27.870Z,4.13
2024-04-19T23:54:19.570Z,1.00
2024-04-19T23:57:06.874Z,4.00
2024-04-19T23:59:54.338Z,2.95
